sensor_id;sensor_type;location;lat;lon;timestamp;P1;durP1;ratioP1;P2;durP2;ratioP2
77466;SDS011;66564;42.482;25.548;2023-12-14T00:00:36;18.15;;;9.93;;
77466;SDS011;66564;42.482;25.548;2023-12-14T00:03:02;26.98;;;12.50;;
77466;SDS011;66564;42.482;25.548;2023-12-14T00:05:27;21.20;;;11.77;;
77466;SDS011;66564;42.482;25.548;2023-12-14T00:07:53;26.80;;;15.95;;
77466;SDS011;66564;42.482;25.548;2023-12-14T00:10:18;35.05;;;14.25;;
77466;SDS011;66564;42.482;25.548;2023-12-14T00:12:44;26.60;;;15.45;;
77466;SDS011;66564;42.482;25.548;2023-12-14T00:15:09;23.38;;;13.63;;
77466;SDS011;66564;42.482;25.548;2023-12-14T00:17:35;20.08;;;12.02;;
77466;SDS011;66564;42.482;25.548;2023-12-14T00:20:00;19.73;;;10.80;;
77466;SDS011;66564;42.482;25.548;2023-12-14T00:22:26;21.27;;;12.82;;
77466;SDS011;66564;42.482;25.548;2023-12-14T00:24:52;26.27;;;14.85;;
77466;SDS011;66564;42.482;25.548;2023-12-14T00:27:20;32.88;;;14.52;;
77466;SDS011;66564;42.482;25.548;2023-12-14T00:29:46;29.77;;;15.32;;
77466;SDS011;66564;42.482;25.548;2023-12-14T00:32:11;23.42;;;13.60;;
77466;SDS011;66564;42.482;25.548;2023-12-14T00:34:37;26.00;;;13.85;;
77466;SDS011;66564;42.482;25.548;2023-12-14T00:37:02;27.00;;;12.50;;
77466;SDS011;66564;42.482;25.548;2023-12-14T00:39:28;22.63;;;12.43;;
77466;SDS011;66564;42.482;25.548;2023-12-14T00:41:53;22.85;;;11.93;;
77466;SDS011;66564;42.482;25.548;2023-12-14T00:44:19;24.08;;;12.90;;
77466;SDS011;66564;42.482;25.548;2023-12-14T00:46:44;25.77;;;13.77;;
77466;SDS011;66564;42.482;25.548;2023-12-14T00:49:10;27.38;;;14.13;;
77466;SDS011;66564;42.482;25.548;2023-12-14T00:51:35;24.50;;;12.45;;
77466;SDS011;66564;42.482;25.548;2023-12-14T00:54:02;24.85;;;13.60;;
77466;SDS011;66564;42.482;25.548;2023-12-14T00:56:31;22.08;;;12.73;;
77466;SDS011;66564;42.482;25.548;2023-12-14T00:58:57;21.13;;;10.85;;
77466;SDS011;66564;42.482;25.548;2023-12-14T01:01:22;21.27;;;11.30;;
77466;SDS011;66564;42.482;25.548;2023-12-14T01:03:48;17.45;;;10.10;;
77466;SDS011;66564;42.482;25.548;2023-12-14T01:06:13;16.08;;;8.45;;
77466;SDS011;66564;42.482;25.548;2023-12-14T01:08:39;16.50;;;8.48;;
77466;SDS011;66564;42.482;25.548;2023-12-14T01:11:04;16.40;;;8.38;;
77466;SDS011;66564;42.482;25.548;2023-12-14T01:13:30;17.27;;;8.70;;
77466;SDS011;66564;42.482;25.548;2023-12-14T01:15:55;11.48;;;7.53;;
77466;SDS011;66564;42.482;25.548;2023-12-14T01:18:21;15.88;;;7.53;;
77466;SDS011;66564;42.482;25.548;2023-12-14T01:20:46;13.63;;;7.32;;
77466;SDS011;66564;42.482;25.548;2023-12-14T01:23:12;11.48;;;6.97;;
77466;SDS011;66564;42.482;25.548;2023-12-14T01:25:37;14.15;;;7.65;;
77466;SDS011;66564;42.482;25.548;2023-12-14T01:28:03;14.20;;;7.80;;
77466;SDS011;66564;42.482;25.548;2023-12-14T01:30:29;11.68;;;6.53;;
77466;SDS011;66564;42.482;25.548;2023-12-14T01:32:54;7.50;;;5.03;;
77466;SDS011;66564;42.482;25.548;2023-12-14T01:35:20;8.88;;;5.47;;
77466;SDS011;66564;42.482;25.548;2023-12-14T01:37:45;8.88;;;5.50;;
77466;SDS011;66564;42.482;25.548;2023-12-14T01:40:11;7.65;;;5.05;;
77466;SDS011;66564;42.482;25.548;2023-12-14T01:42:37;13.70;;;6.95;;
77466;SDS011;66564;42.482;25.548;2023-12-14T01:45:03;17.60;;;10.63;;
77466;SDS011;66564;42.482;25.548;2023-12-14T01:47:29;21.38;;;11.30;;
77466;SDS011;66564;42.482;25.548;2023-12-14T01:49:55;23.95;;;12.43;;
77466;SDS011;66564;42.482;25.548;2023-12-14T01:52:20;27.30;;;13.32;;
77466;SDS011;66564;42.482;25.548;2023-12-14T01:54:45;22.92;;;12.68;;
77466;SDS011;66564;42.482;25.548;2023-12-14T01:57:11;26.67;;;14.13;;
77466;SDS011;66564;42.482;25.548;2023-12-14T01:59:38;25.98;;;15.63;;
77466;SDS011;66564;42.482;25.548;2023-12-14T02:02:03;23.92;;;12.88;;
77466;SDS011;66564;42.482;25.548;2023-12-14T02:04:32;22.40;;;12.50;;
77466;SDS011;66564;42.482;25.548;2023-12-14T02:06:58;27.95;;;14.82;;
77466;SDS011;66564;42.482;25.548;2023-12-14T02:09:23;27.25;;;14.35;;
77466;SDS011;66564;42.482;25.548;2023-12-14T02:11:50;23.17;;;12.65;;
77466;SDS011;66564;42.482;25.548;2023-12-14T02:14:15;25.42;;;12.77;;
77466;SDS011;66564;42.482;25.548;2023-12-14T02:16:40;24.98;;;12.77;;
77466;SDS011;66564;42.482;25.548;2023-12-14T02:19:06;22.70;;;13.25;;
77466;SDS011;66564;42.482;25.548;2023-12-14T02:21:32;23.40;;;12.50;;
77466;SDS011;66564;42.482;25.548;2023-12-14T02:23:57;25.30;;;14.70;;
77466;SDS011;66564;42.482;25.548;2023-12-14T02:26:23;24.15;;;14.07;;
77466;SDS011;66564;42.482;25.548;2023-12-14T02:28:48;23.85;;;13.52;;
77466;SDS011;66564;42.482;25.548;2023-12-14T02:31:14;23.20;;;13.50;;
77466;SDS011;66564;42.482;25.548;2023-12-14T02:33:39;24.95;;;13.43;;
77466;SDS011;66564;42.482;25.548;2023-12-14T02:36:05;24.98;;;12.45;;
77466;SDS011;66564;42.482;25.548;2023-12-14T02:38:31;21.23;;;11.57;;
77466;SDS011;66564;42.482;25.548;2023-12-14T02:40:56;24.25;;;12.45;;
77466;SDS011;66564;42.482;25.548;2023-12-14T02:43:22;22.52;;;11.63;;
77466;SDS011;66564;42.482;25.548;2023-12-14T02:45:48;26.10;;;13.55;;
77466;SDS011;66564;42.482;25.548;2023-12-14T02:48:14;23.88;;;12.98;;
77466;SDS011;66564;42.482;25.548;2023-12-14T02:50:39;23.02;;;13.05;;
77466;SDS011;66564;42.482;25.548;2023-12-14T02:53:05;28.67;;;14.50;;
77466;SDS011;66564;42.482;25.548;2023-12-14T02:55:30;26.23;;;12.40;;
77466;SDS011;66564;42.482;25.548;2023-12-14T02:57:56;20.65;;;11.63;;
77466;SDS011;66564;42.482;25.548;2023-12-14T03:00:21;26.90;;;12.75;;
77466;SDS011;66564;42.482;25.548;2023-12-14T03:02:47;20.15;;;10.88;;
77466;SDS011;66564;42.482;25.548;2023-12-14T03:05:13;17.65;;;10.15;;
77466;SDS011;66564;42.482;25.548;2023-12-14T03:07:38;17.50;;;8.15;;
77466;SDS011;66564;42.482;25.548;2023-12-14T03:10:04;13.93;;;7.40;;
77466;SDS011;66564;42.482;25.548;2023-12-14T03:12:30;17.85;;;7.55;;
77466;SDS011;66564;42.482;25.548;2023-12-14T03:14:56;10.98;;;7.25;;
77466;SDS011;66564;42.482;25.548;2023-12-14T03:17:21;6.95;;;5.28;;
77466;SDS011;66564;42.482;25.548;2023-12-14T03:19:47;8.32;;;5.30;;
77466;SDS011;66564;42.482;25.548;2023-12-14T03:22:12;10.77;;;5.32;;
77466;SDS011;66564;42.482;25.548;2023-12-14T03:24:38;9.38;;;5.30;;
77466;SDS011;66564;42.482;25.548;2023-12-14T03:27:04;7.68;;;4.82;;
77466;SDS011;66564;42.482;25.548;2023-12-14T03:29:30;8.85;;;5.57;;
77466;SDS011;66564;42.482;25.548;2023-12-14T03:31:56;8.10;;;4.80;;
77466;SDS011;66564;42.482;25.548;2023-12-14T03:34:22;10.23;;;5.43;;
77466;SDS011;66564;42.482;25.548;2023-12-14T03:36:48;8.13;;;4.82;;
77466;SDS011;66564;42.482;25.548;2023-12-14T03:39:13;11.02;;;5.03;;
77466;SDS011;66564;42.482;25.548;2023-12-14T03:41:41;10.88;;;5.28;;
77466;SDS011;66564;42.482;25.548;2023-12-14T03:44:06;8.80;;;5.35;;
77466;SDS011;66564;42.482;25.548;2023-12-14T03:46:32;9.20;;;6.13;;
77466;SDS011;66564;42.482;25.548;2023-12-14T03:48:59;10.02;;;5.65;;
77466;SDS011;66564;42.482;25.548;2023-12-14T03:51:24;14.90;;;7.53;;
77466;SDS011;66564;42.482;25.548;2023-12-14T03:53:50;12.32;;;7.93;;
77466;SDS011;66564;42.482;25.548;2023-12-14T03:56:15;13.15;;;7.60;;
77466;SDS011;66564;42.482;25.548;2023-12-14T03:58:41;14.02;;;7.72;;
77466;SDS011;66564;42.482;25.548;2023-12-14T04:01:06;15.32;;;8.63;;
77466;SDS011;66564;42.482;25.548;2023-12-14T04:03:32;13.73;;;8.32;;
77466;SDS011;66564;42.482;25.548;2023-12-14T04:05:58;12.85;;;7.40;;
77466;SDS011;66564;42.482;25.548;2023-12-14T04:08:23;11.63;;;6.88;;
77466;SDS011;66564;42.482;25.548;2023-12-14T04:10:49;14.70;;;7.43;;
77466;SDS011;66564;42.482;25.548;2023-12-14T04:13:14;16.50;;;9.93;;
77466;SDS011;66564;42.482;25.548;2023-12-14T04:15:40;22.40;;;11.30;;
77466;SDS011;66564;42.482;25.548;2023-12-14T04:18:06;21.58;;;11.02;;
77466;SDS011;66564;42.482;25.548;2023-12-14T04:20:33;17.50;;;9.95;;
77466;SDS011;66564;42.482;25.548;2023-12-14T04:22:58;15.55;;;8.95;;
77466;SDS011;66564;42.482;25.548;2023-12-14T04:25:24;16.73;;;9.50;;
77466;SDS011;66564;42.482;25.548;2023-12-14T04:27:50;18.95;;;9.63;;
77466;SDS011;66564;42.482;25.548;2023-12-14T04:30:15;18.27;;;10.73;;
77466;SDS011;66564;42.482;25.548;2023-12-14T04:32:41;20.55;;;11.75;;
77466;SDS011;66564;42.482;25.548;2023-12-14T04:35:06;23.77;;;12.50;;
77466;SDS011;66564;42.482;25.548;2023-12-14T04:37:32;24.10;;;11.88;;
77466;SDS011;66564;42.482;25.548;2023-12-14T04:39:59;22.65;;;11.38;;
77466;SDS011;66564;42.482;25.548;2023-12-14T04:42:24;23.25;;;13.23;;
77466;SDS011;66564;42.482;25.548;2023-12-14T04:44:50;21.08;;;12.00;;
77466;SDS011;66564;42.482;25.548;2023-12-14T04:47:15;22.15;;;13.15;;
77466;SDS011;66564;42.482;25.548;2023-12-14T04:49:41;24.00;;;12.25;;
77466;SDS011;66564;42.482;25.548;2023-12-14T04:52:06;22.30;;;12.30;;
77466;SDS011;66564;42.482;25.548;2023-12-14T04:54:32;23.27;;;13.48;;
77466;SDS011;66564;42.482;25.548;2023-12-14T04:57:00;27.15;;;13.68;;
77466;SDS011;66564;42.482;25.548;2023-12-14T04:59:28;29.05;;;15.05;;
77466;SDS011;66564;42.482;25.548;2023-12-14T05:01:54;25.30;;;13.05;;
77466;SDS011;66564;42.482;25.548;2023-12-14T05:04:19;22.75;;;12.23;;
77466;SDS011;66564;42.482;25.548;2023-12-14T05:06:45;22.30;;;11.13;;
77466;SDS011;66564;42.482;25.548;2023-12-14T05:09:11;18.65;;;10.30;;
77466;SDS011;66564;42.482;25.548;2023-12-14T05:11:36;20.80;;;11.38;;
77466;SDS011;66564;42.482;25.548;2023-12-14T05:14:02;20.63;;;11.38;;
77466;SDS011;66564;42.482;25.548;2023-12-14T05:16:28;23.77;;;11.73;;
77466;SDS011;66564;42.482;25.548;2023-12-14T05:18:53;19.40;;;12.18;;
77466;SDS011;66564;42.482;25.548;2023-12-14T05:21:19;24.08;;;11.27;;
77466;SDS011;66564;42.482;25.548;2023-12-14T05:23:44;19.70;;;12.52;;
77466;SDS011;66564;42.482;25.548;2023-12-14T05:26:10;23.88;;;11.95;;
77466;SDS011;66564;42.482;25.548;2023-12-14T05:28:35;27.63;;;13.35;;
77466;SDS011;66564;42.482;25.548;2023-12-14T05:31:01;16.80;;;9.82;;
77466;SDS011;66564;42.482;25.548;2023-12-14T05:33:27;12.70;;;8.68;;
77466;SDS011;66564;42.482;25.548;2023-12-14T05:35:53;19.75;;;8.85;;
77466;SDS011;66564;42.482;25.548;2023-12-14T05:38:19;19.08;;;8.68;;
77466;SDS011;66564;42.482;25.548;2023-12-14T05:40:44;19.27;;;10.35;;
77466;SDS011;66564;42.482;25.548;2023-12-14T05:43:10;17.88;;;11.35;;
77466;SDS011;66564;42.482;25.548;2023-12-14T05:45:36;19.67;;;11.68;;
77466;SDS011;66564;42.482;25.548;2023-12-14T05:48:02;21.80;;;12.50;;
77466;SDS011;66564;42.482;25.548;2023-12-14T05:52:57;14.90;;;8.07;;
77466;SDS011;66564;42.482;25.548;2023-12-14T05:55:22;10.23;;;6.20;;
77466;SDS011;66564;42.482;25.548;2023-12-14T05:57:48;11.32;;;6.70;;
77466;SDS011;66564;42.482;25.548;2023-12-14T06:00:14;13.27;;;7.55;;
77466;SDS011;66564;42.482;25.548;2023-12-14T06:02:40;14.13;;;7.30;;
77466;SDS011;66564;42.482;25.548;2023-12-14T06:05:06;12.65;;;7.22;;
77466;SDS011;66564;42.482;25.548;2023-12-14T06:07:32;18.35;;;10.27;;
77466;SDS011;66564;42.482;25.548;2023-12-14T06:09:58;22.00;;;11.05;;
77466;SDS011;66564;42.482;25.548;2023-12-14T06:12:24;16.13;;;9.38;;
77466;SDS011;66564;42.482;25.548;2023-12-14T06:14:49;15.07;;;8.18;;
77466;SDS011;66564;42.482;25.548;2023-12-14T06:17:15;14.32;;;8.20;;
77466;SDS011;66564;42.482;25.548;2023-12-14T06:19:41;15.30;;;8.63;;
77466;SDS011;66564;42.482;25.548;2023-12-14T06:22:06;20.52;;;10.30;;
77466;SDS011;66564;42.482;25.548;2023-12-14T06:24:32;19.05;;;10.63;;
77466;SDS011;66564;42.482;25.548;2023-12-14T06:26:57;24.58;;;13.15;;
77466;SDS011;66564;42.482;25.548;2023-12-14T06:29:23;24.75;;;14.30;;
77466;SDS011;66564;42.482;25.548;2023-12-14T06:31:48;25.23;;;13.55;;
77466;SDS011;66564;42.482;25.548;2023-12-14T06:34:14;23.08;;;13.35;;
77466;SDS011;66564;42.482;25.548;2023-12-14T06:36:43;25.63;;;14.15;;
77466;SDS011;66564;42.482;25.548;2023-12-14T06:39:09;21.67;;;13.30;;
77466;SDS011;66564;42.482;25.548;2023-12-14T06:41:35;22.27;;;12.82;;
77466;SDS011;66564;42.482;25.548;2023-12-14T06:44:01;21.35;;;12.35;;
77466;SDS011;66564;42.482;25.548;2023-12-14T06:46:28;20.25;;;12.00;;
77466;SDS011;66564;42.482;25.548;2023-12-14T06:48:54;23.35;;;12.30;;
77466;SDS011;66564;42.482;25.548;2023-12-14T06:51:20;26.75;;;13.50;;
77466;SDS011;66564;42.482;25.548;2023-12-14T06:53:46;23.10;;;13.00;;
77466;SDS011;66564;42.482;25.548;2023-12-14T06:56:12;22.27;;;13.23;;
77466;SDS011;66564;42.482;25.548;2023-12-14T06:58:39;27.90;;;12.15;;
77466;SDS011;66564;42.482;25.548;2023-12-14T07:01:06;25.70;;;13.40;;
77466;SDS011;66564;42.482;25.548;2023-12-14T07:03:31;23.50;;;13.85;;
77466;SDS011;66564;42.482;25.548;2023-12-14T07:05:57;26.88;;;12.88;;
77466;SDS011;66564;42.482;25.548;2023-12-14T07:08:23;25.70;;;10.90;;
77466;SDS011;66564;42.482;25.548;2023-12-14T07:10:48;18.83;;;11.15;;
77466;SDS011;66564;42.482;25.548;2023-12-14T07:13:14;19.48;;;12.30;;
77466;SDS011;66564;42.482;25.548;2023-12-14T07:15:39;19.58;;;12.60;;
77466;SDS011;66564;42.482;25.548;2023-12-14T07:18:05;21.77;;;10.80;;
77466;SDS011;66564;42.482;25.548;2023-12-14T07:20:30;22.38;;;11.95;;
77466;SDS011;66564;42.482;25.548;2023-12-14T07:22:56;21.63;;;12.68;;
77466;SDS011;66564;42.482;25.548;2023-12-14T07:25:21;17.73;;;10.98;;
77466;SDS011;66564;42.482;25.548;2023-12-14T07:27:47;21.33;;;10.63;;
77466;SDS011;66564;42.482;25.548;2023-12-14T07:30:13;14.02;;;8.20;;
77466;SDS011;66564;42.482;25.548;2023-12-14T07:32:38;14.48;;;8.30;;
77466;SDS011;66564;42.482;25.548;2023-12-14T07:35:04;12.18;;;7.88;;
77466;SDS011;66564;42.482;25.548;2023-12-14T07:37:30;14.63;;;8.68;;
77466;SDS011;66564;42.482;25.548;2023-12-14T07:39:56;19.30;;;9.93;;
77466;SDS011;66564;42.482;25.548;2023-12-14T07:42:22;17.83;;;10.18;;
77466;SDS011;66564;42.482;25.548;2023-12-14T07:44:48;24.15;;;12.70;;
77466;SDS011;66564;42.482;25.548;2023-12-14T07:47:13;32.92;;;16.85;;
77466;SDS011;66564;42.482;25.548;2023-12-14T07:49:39;35.33;;;14.95;;
77466;SDS011;66564;42.482;25.548;2023-12-14T07:52:05;28.75;;;15.88;;
77466;SDS011;66564;42.482;25.548;2023-12-14T07:54:31;31.75;;;14.55;;
77466;SDS011;66564;42.482;25.548;2023-12-14T07:56:56;24.52;;;13.05;;
77466;SDS011;66564;42.482;25.548;2023-12-14T07:59:22;21.30;;;12.43;;
77466;SDS011;66564;42.482;25.548;2023-12-14T08:01:47;28.98;;;15.82;;
77466;SDS011;66564;42.482;25.548;2023-12-14T08:04:13;51.47;;;26.85;;
77466;SDS011;66564;42.482;25.548;2023-12-14T08:06:39;38.70;;;20.35;;
77466;SDS011;66564;42.482;25.548;2023-12-14T08:09:06;30.65;;;18.77;;
77466;SDS011;66564;42.482;25.548;2023-12-14T08:11:32;31.00;;;16.02;;
77466;SDS011;66564;42.482;25.548;2023-12-14T08:13:58;42.95;;;16.77;;
77466;SDS011;66564;42.482;25.548;2023-12-14T08:16:24;28.80;;;15.50;;
77466;SDS011;66564;42.482;25.548;2023-12-14T08:18:50;66.57;;;36.92;;
77466;SDS011;66564;42.482;25.548;2023-12-14T08:21:16;61.35;;;33.05;;
77466;SDS011;66564;42.482;25.548;2023-12-14T08:23:42;52.22;;;28.35;;
77466;SDS011;66564;42.482;25.548;2023-12-14T08:26:07;34.13;;;19.45;;
77466;SDS011;66564;42.482;25.548;2023-12-14T08:28:35;38.88;;;21.05;;
77466;SDS011;66564;42.482;25.548;2023-12-14T08:31:01;37.63;;;19.65;;
77466;SDS011;66564;42.482;25.548;2023-12-14T08:33:28;34.40;;;19.27;;
77466;SDS011;66564;42.482;25.548;2023-12-14T08:35:56;31.55;;;19.55;;
77466;SDS011;66564;42.482;25.548;2023-12-14T08:38:22;70.85;;;38.67;;
77466;SDS011;66564;42.482;25.548;2023-12-14T08:40:47;60.58;;;35.20;;
77466;SDS011;66564;42.482;25.548;2023-12-14T08:43:13;54.53;;;29.10;;
77466;SDS011;66564;42.482;25.548;2023-12-14T08:45:39;38.10;;;21.70;;
77466;SDS011;66564;42.482;25.548;2023-12-14T08:48:05;37.05;;;22.02;;
77466;SDS011;66564;42.482;25.548;2023-12-14T08:50:30;34.10;;;19.17;;
77466;SDS011;66564;42.482;25.548;2023-12-14T08:52:56;32.83;;;19.33;;
77466;SDS011;66564;42.482;25.548;2023-12-14T08:55:23;30.52;;;18.25;;
77466;SDS011;66564;42.482;25.548;2023-12-14T08:57:49;25.98;;;14.35;;
77466;SDS011;66564;42.482;25.548;2023-12-14T09:00:15;21.45;;;13.73;;
77466;SDS011;66564;42.482;25.548;2023-12-14T09:02:42;21.65;;;13.48;;
77466;SDS011;66564;42.482;25.548;2023-12-14T09:05:09;29.30;;;17.30;;
77466;SDS011;66564;42.482;25.548;2023-12-14T09:07:34;28.52;;;16.08;;
77466;SDS011;66564;42.482;25.548;2023-12-14T09:10:00;25.52;;;15.95;;
77466;SDS011;66564;42.482;25.548;2023-12-14T09:12:25;26.48;;;16.52;;
77466;SDS011;66564;42.482;25.548;2023-12-14T09:14:51;29.70;;;16.60;;
77466;SDS011;66564;42.482;25.548;2023-12-14T09:17:16;29.67;;;15.35;;
77466;SDS011;66564;42.482;25.548;2023-12-14T09:19:42;22.08;;;13.20;;
77466;SDS011;66564;42.482;25.548;2023-12-14T09:22:07;27.27;;;16.65;;
77466;SDS011;66564;42.482;25.548;2023-12-14T09:24:32;23.30;;;14.90;;
77466;SDS011;66564;42.482;25.548;2023-12-14T09:26:58;26.55;;;15.45;;
77466;SDS011;66564;42.482;25.548;2023-12-14T09:29:23;27.98;;;15.57;;
77466;SDS011;66564;42.482;25.548;2023-12-14T09:31:49;33.83;;;16.33;;
77466;SDS011;66564;42.482;25.548;2023-12-14T09:34:15;33.00;;;16.05;;
77466;SDS011;66564;42.482;25.548;2023-12-14T09:36:40;27.70;;;16.42;;
77466;SDS011;66564;42.482;25.548;2023-12-14T09:39:06;23.17;;;13.93;;
77466;SDS011;66564;42.482;25.548;2023-12-14T09:41:36;25.25;;;13.93;;
77466;SDS011;66564;42.482;25.548;2023-12-14T09:44:03;26.00;;;15.65;;
77466;SDS011;66564;42.482;25.548;2023-12-14T09:46:30;54.13;;;30.52;;
77466;SDS011;66564;42.482;25.548;2023-12-14T09:48:56;39.15;;;21.42;;
77466;SDS011;66564;42.482;25.548;2023-12-14T09:51:22;28.02;;;17.42;;
77466;SDS011;66564;42.482;25.548;2023-12-14T09:53:49;23.83;;;14.70;;
77466;SDS011;66564;42.482;25.548;2023-12-14T09:56:16;21.48;;;13.13;;
77466;SDS011;66564;42.482;25.548;2023-12-14T09:58:41;21.08;;;13.70;;
77466;SDS011;66564;42.482;25.548;2023-12-14T10:01:23;19.75;;;11.45;;
77466;SDS011;66564;42.482;25.548;2023-12-14T10:06:48;18.95;;;11.45;;
77466;SDS011;66564;42.482;25.548;2023-12-14T10:09:14;24.25;;;11.35;;
77466;SDS011;66564;42.482;25.548;2023-12-14T10:11:42;21.92;;;12.00;;
77466;SDS011;66564;42.482;25.548;2023-12-14T10:14:17;19.63;;;11.43;;
77466;SDS011;66564;42.482;25.548;2023-12-14T10:16:50;20.17;;;12.23;;
77466;SDS011;66564;42.482;25.548;2023-12-14T10:19:22;22.50;;;13.77;;
77466;SDS011;66564;42.482;25.548;2023-12-14T10:22:09;22.58;;;12.63;;
77466;SDS011;66564;42.482;25.548;2023-12-14T10:24:34;19.77;;;11.88;;
77466;SDS011;66564;42.482;25.548;2023-12-14T10:27:02;17.77;;;11.50;;
77466;SDS011;66564;42.482;25.548;2023-12-14T10:29:32;20.60;;;11.38;;
77466;SDS011;66564;42.482;25.548;2023-12-14T10:31:59;19.35;;;10.98;;
77466;SDS011;66564;42.482;25.548;2023-12-14T10:34:27;21.45;;;11.80;;
77466;SDS011;66564;42.482;25.548;2023-12-14T10:36:52;18.73;;;11.07;;
77466;SDS011;66564;42.482;25.548;2023-12-14T10:39:18;16.77;;;10.35;;
77466;SDS011;66564;42.482;25.548;2023-12-14T10:41:48;19.08;;;11.38;;
77466;SDS011;66564;42.482;25.548;2023-12-14T10:46:41;16.60;;;10.35;;
77466;SDS011;66564;42.482;25.548;2023-12-14T10:49:07;15.57;;;10.35;;
77466;SDS011;66564;42.482;25.548;2023-12-14T10:51:35;18.85;;;10.88;;
77466;SDS011;66564;42.482;25.548;2023-12-14T10:54:02;21.80;;;11.45;;
77466;SDS011;66564;42.482;25.548;2023-12-14T10:56:28;18.00;;;11.23;;
77466;SDS011;66564;42.482;25.548;2023-12-14T10:58:57;17.42;;;9.82;;
77466;SDS011;66564;42.482;25.548;2023-12-14T11:01:25;24.92;;;9.70;;
77466;SDS011;66564;42.482;25.548;2023-12-14T11:03:54;14.82;;;8.73;;
77466;SDS011;66564;42.482;25.548;2023-12-14T11:08:53;14.43;;;9.85;;
77466;SDS011;66564;42.482;25.548;2023-12-14T11:11:30;17.10;;;9.82;;
77466;SDS011;66564;42.482;25.548;2023-12-14T11:13:56;19.42;;;9.20;;
77466;SDS011;66564;42.482;25.548;2023-12-14T11:16:25;17.00;;;9.52;;
77466;SDS011;66564;42.482;25.548;2023-12-14T11:22:08;16.67;;;9.23;;
77466;SDS011;66564;42.482;25.548;2023-12-14T11:24:32;16.00;;;8.63;;
77466;SDS011;66564;42.482;25.548;2023-12-14T11:27:03;18.02;;;8.38;;
77466;SDS011;66564;42.482;25.548;2023-12-14T11:29:32;14.20;;;8.32;;
77466;SDS011;66564;42.482;25.548;2023-12-14T11:31:58;16.25;;;8.70;;
77466;SDS011;66564;42.482;25.548;2023-12-14T11:34:24;11.95;;;8.75;;
77466;SDS011;66564;42.482;25.548;2023-12-14T11:36:50;10.57;;;7.30;;
77466;SDS011;66564;42.482;25.548;2023-12-14T11:39:15;12.80;;;8.57;;
77466;SDS011;66564;42.482;25.548;2023-12-14T11:41:41;16.15;;;8.80;;
77466;SDS011;66564;42.482;25.548;2023-12-14T11:44:06;12.30;;;8.13;;
77466;SDS011;66564;42.482;25.548;2023-12-14T11:46:32;13.52;;;8.35;;
77466;SDS011;66564;42.482;25.548;2023-12-14T11:48:58;18.23;;;8.70;;
77466;SDS011;66564;42.482;25.548;2023-12-14T11:51:23;15.70;;;8.27;;
77466;SDS011;66564;42.482;25.548;2023-12-14T11:53:52;16.65;;;8.63;;
77466;SDS011;66564;42.482;25.548;2023-12-14T11:56:20;11.18;;;7.18;;
77466;SDS011;66564;42.482;25.548;2023-12-14T11:58:48;13.23;;;8.98;;
77466;SDS011;66564;42.482;25.548;2023-12-14T12:03:40;15.02;;;8.65;;
77466;SDS011;66564;42.482;25.548;2023-12-14T12:06:06;16.08;;;8.02;;
77466;SDS011;66564;42.482;25.548;2023-12-14T12:08:31;14.07;;;7.93;;
77466;SDS011;66564;42.482;25.548;2023-12-14T12:11:07;14.73;;;7.47;;
77466;SDS011;66564;42.482;25.548;2023-12-14T12:13:34;10.43;;;7.00;;
77466;SDS011;66564;42.482;25.548;2023-12-14T12:15:59;13.52;;;6.63;;
77466;SDS011;66564;42.482;25.548;2023-12-14T12:18:25;15.75;;;7.28;;
77466;SDS011;66564;42.482;25.548;2023-12-14T12:20:51;12.10;;;7.57;;
77466;SDS011;66564;42.482;25.548;2023-12-14T12:23:18;14.55;;;7.38;;
77466;SDS011;66564;42.482;25.548;2023-12-14T12:25:43;14.43;;;7.88;;
77466;SDS011;66564;42.482;25.548;2023-12-14T12:28:09;10.20;;;6.63;;
77466;SDS011;66564;42.482;25.548;2023-12-14T12:30:34;10.38;;;6.35;;
77466;SDS011;66564;42.482;25.548;2023-12-14T12:33:00;10.15;;;6.88;;
77466;SDS011;66564;42.482;25.548;2023-12-14T12:35:27;12.35;;;6.65;;
77466;SDS011;66564;42.482;25.548;2023-12-14T12:37:55;12.07;;;7.80;;
77466;SDS011;66564;42.482;25.548;2023-12-14T12:40:21;9.57;;;6.40;;
77466;SDS011;66564;42.482;25.548;2023-12-14T12:42:48;10.75;;;5.72;;
77466;SDS011;66564;42.482;25.548;2023-12-14T12:45:15;9.82;;;5.95;;
77466;SDS011;66564;42.482;25.548;2023-12-14T12:47:43;10.15;;;6.18;;
77466;SDS011;66564;42.482;25.548;2023-12-14T12:50:10;11.63;;;6.75;;
77466;SDS011;66564;42.482;25.548;2023-12-14T12:52:35;10.68;;;6.38;;
77466;SDS011;66564;42.482;25.548;2023-12-14T12:55:02;10.63;;;6.90;;
77466;SDS011;66564;42.482;25.548;2023-12-14T12:57:29;9.88;;;6.70;;
77466;SDS011;66564;42.482;25.548;2023-12-14T12:59:54;10.07;;;5.90;;
77466;SDS011;66564;42.482;25.548;2023-12-14T13:02:21;13.82;;;6.53;;
77466;SDS011;66564;42.482;25.548;2023-12-14T13:04:46;13.05;;;6.57;;
77466;SDS011;66564;42.482;25.548;2023-12-14T13:07:12;11.95;;;6.55;;
77466;SDS011;66564;42.482;25.548;2023-12-14T13:09:38;9.65;;;5.78;;
77466;SDS011;66564;42.482;25.548;2023-12-14T13:12:03;12.02;;;6.13;;
77466;SDS011;66564;42.482;25.548;2023-12-14T13:14:30;12.13;;;5.75;;
77466;SDS011;66564;42.482;25.548;2023-12-14T13:16:56;9.18;;;6.22;;
77466;SDS011;66564;42.482;25.548;2023-12-14T13:19:23;10.13;;;6.32;;
77466;SDS011;66564;42.482;25.548;2023-12-14T13:21:49;10.98;;;6.05;;
77466;SDS011;66564;42.482;25.548;2023-12-14T13:24:14;11.88;;;6.90;;
77466;SDS011;66564;42.482;25.548;2023-12-14T13:26:40;10.18;;;6.88;;
77466;SDS011;66564;42.482;25.548;2023-12-14T13:29:05;13.27;;;7.93;;
77466;SDS011;66564;42.482;25.548;2023-12-14T13:31:31;11.35;;;6.88;;
77466;SDS011;66564;42.482;25.548;2023-12-14T13:33:56;13.15;;;7.25;;
77466;SDS011;66564;42.482;25.548;2023-12-14T13:36:22;16.33;;;7.68;;
77466;SDS011;66564;42.482;25.548;2023-12-14T13:38:48;13.25;;;7.65;;
77466;SDS011;66564;42.482;25.548;2023-12-14T13:41:14;16.02;;;7.88;;
77466;SDS011;66564;42.482;25.548;2023-12-14T13:43:39;10.75;;;7.78;;
77466;SDS011;66564;42.482;25.548;2023-12-14T13:46:05;10.63;;;6.45;;
77466;SDS011;66564;42.482;25.548;2023-12-14T13:48:31;11.20;;;6.80;;
77466;SDS011;66564;42.482;25.548;2023-12-14T13:50:56;11.23;;;6.72;;
77466;SDS011;66564;42.482;25.548;2023-12-14T13:53:22;10.60;;;6.70;;
77466;SDS011;66564;42.482;25.548;2023-12-14T13:55:48;13.48;;;6.38;;
77466;SDS011;66564;42.482;25.548;2023-12-14T13:58:15;11.95;;;6.30;;
77466;SDS011;66564;42.482;25.548;2023-12-14T14:00:41;10.15;;;6.00;;
77466;SDS011;66564;42.482;25.548;2023-12-14T14:03:07;9.52;;;5.93;;
77466;SDS011;66564;42.482;25.548;2023-12-14T14:05:33;12.23;;;6.22;;
77466;SDS011;66564;42.482;25.548;2023-12-14T14:07:58;9.75;;;7.00;;
77466;SDS011;66564;42.482;25.548;2023-12-14T14:10:24;11.40;;;6.15;;
77466;SDS011;66564;42.482;25.548;2023-12-14T14:12:50;10.43;;;6.15;;
77466;SDS011;66564;42.482;25.548;2023-12-14T14:15:16;10.25;;;6.35;;
77466;SDS011;66564;42.482;25.548;2023-12-14T14:17:42;11.88;;;7.13;;
77466;SDS011;66564;42.482;25.548;2023-12-14T14:20:08;10.23;;;6.40;;
77466;SDS011;66564;42.482;25.548;2023-12-14T14:22:35;12.35;;;7.22;;
77466;SDS011;66564;42.482;25.548;2023-12-14T14:25:01;15.65;;;8.00;;